sensor_id;sensor_type;location;lat;lon;timestamp;pressure;altitude;pressure_sealevel;temperature;humidity
9141;BME280;46330;50.822;7.126;2023-08-30T00:00:30;100274.00;;;15.68;100.00
9141;BME280;46330;50.822;7.126;2023-08-30T00:02:58;100276.66;;;15.68;100.00
9141;BME280;46330;50.822;7.126;2023-08-30T00:05:26;100270.59;;;15.66;100.00
9141;BME280;46330;50.822;7.126;2023-08-30T00:07:56;100270.75;;;15.63;100.00
9141;BME280;46330;50.822;7.126;2023-08-30T00:10:24;100268.09;;;15.63;100.00
9141;BME280;46330;50.822;7.126;2023-08-30T00:12:52;100274.72;;;15.52;99.65
9141;BME280;46330;50.822;7.126;2023-08-30T00:15:20;100273.81;;;15.53;99.91
9141;BME280;46330;50.822;7.126;2023-08-30T00:17:47;100271.16;;;15.53;99.35
9141;BME280;46330;50.822;7.126;2023-08-30T00:20:18;100274.84;;;15.49;99.43
9141;BME280;46330;50.822;7.126;2023-08-30T00:22:45;100271.50;;;15.44;100.00
9141;BME280;46330;50.822;7.126;2023-08-30T00:25:15;100264.69;;;15.40;100.00
9141;BME280;46330;50.822;7.126;2023-08-30T00:27:42;100273.66;;;15.36;100.00
9141;BME280;46330;50.822;7.126;2023-08-30T00:30:11;100263.56;;;15.26;100.00
9141;BME280;46330;50.822;7.126;2023-08-30T00:32:39;100266.47;;;15.20;100.00
9141;BME280;46330;50.822;7.126;2023-08-30T00:35:07;100266.72;;;15.15;100.00
9141;BME280;46330;50.822;7.126;2023-08-30T00:37:34;100270.00;;;15.00;100.00
9141;BME280;46330;50.822;7.126;2023-08-30T00:40:03;100267.28;;;15.01;100.00
9141;BME280;46330;50.822;7.126;2023-08-30T00:42:32;100263.75;;;15.02;100.00
9141;BME280;46330;50.822;7.126;2023-08-30T00:45:00;100268.94;;;15.04;100.00
9141;BME280;46330;50.822;7.126;2023-08-30T00:47:27;100263.81;;;15.01;100.00
9141;BME280;46330;50.822;7.126;2023-08-30T00:49:55;100259.00;;;14.90;100.00
9141;BME280;46330;50.822;7.126;2023-08-30T00:52:23;100257.38;;;14.88;100.00
9141;BME280;46330;50.822;7.126;2023-08-30T00:54:51;100253.63;;;14.93;100.00
9141;BME280;46330;50.822;7.126;2023-08-30T00:57:19;100250.03;;;14.94;100.00
9141;BME280;46330;50.822;7.126;2023-08-30T00:59:48;100249.53;;;14.86;100.00
9141;BME280;46330;50.822;7.126;2023-08-30T01:02:20;100246.16;;;14.83;100.00
9141;BME280;46330;50.822;7.126;2023-08-30T01:04:48;100240.31;;;14.76;100.00
9141;BME280;46330;50.822;7.126;2023-08-30T01:07:16;100235.56;;;14.64;100.00
9141;BME280;46330;50.822;7.126;2023-08-30T01:09:45;100227.66;;;14.64;100.00
9141;BME280;46330;50.822;7.126;2023-08-30T01:12:15;100227.75;;;14.63;100.00
9141;BME280;46330;50.822;7.126;2023-08-30T01:14:45;100219.25;;;14.56;100.00
9141;BME280;46330;50.822;7.126;2023-08-30T01:17:18;100229.66;;;14.59;100.00
9141;BME280;46330;50.822;7.126;2023-08-30T01:19:47;100228.38;;;14.68;100.00
9141;BME280;46330;50.822;7.126;2023-08-30T01:22:17;100226.53;;;14.70;100.00
9141;BME280;46330;50.822;7.126;2023-08-30T01:24:49;100219.72;;;14.66;100.00
9141;BME280;46330;50.822;7.126;2023-08-30T01:27:21;100217.22;;;14.63;100.00
9141;BME280;46330;50.822;7.126;2023-08-30T01:29:51;100213.63;;;14.64;100.00
9141;BME280;46330;50.822;7.126;2023-08-30T01:32:21;100219.97;;;14.60;100.00
9141;BME280;46330;50.822;7.126;2023-08-30T01:34:52;100205.75;;;14.64;100.00
9141;BME280;46330;50.822;7.126;2023-08-30T01:37:20;100209.69;;;14.74;100.00
9141;BME280;46330;50.822;7.126;2023-08-30T01:39:48;100212.94;;;14.80;100.00
9141;BME280;46330;50.822;7.126;2023-08-30T01:42:17;100211.19;;;14.79;100.00
9141;BME280;46330;50.822;7.126;2023-08-30T01:44:49;100207.78;;;14.77;100.00
9141;BME280;46330;50.822;7.126;2023-08-30T01:47:21;100203.72;;;14.70;100.00
9141;BME280;46330;50.822;7.126;2023-08-30T01:49:49;100204.84;;;14.65;100.00
9141;BME280;46330;50.822;7.126;2023-08-30T01:52:17;100211.88;;;14.64;100.00
9141;BME280;46330;50.822;7.126;2023-08-30T01:54:46;100211.00;;;14.64;100.00
9141;BME280;46330;50.822;7.126;2023-08-30T01:57:15;100201.56;;;14.60;100.00
9141;BME280;46330;50.822;7.126;2023-08-30T01:59:42;100194.75;;;14.54;100.00
9141;BME280;46330;50.822;7.126;2023-08-30T02:02:11;100198.06;;;14.59;100.00
9141;BME280;46330;50.822;7.126;2023-08-30T02:04:39;100193.53;;;14.63;100.00
9141;BME280;46330;50.822;7.126;2023-08-30T02:07:08;100199.69;;;14.62;100.00
9141;BME280;46330;50.822;7.126;2023-08-30T02:09:42;100203.06;;;14.65;100.00
9141;BME280;46330;50.822;7.126;2023-08-30T02:12:15;100204.06;;;14.63;100.00
9141;BME280;46330;50.822;7.126;2023-08-30T02:14:44;100197.38;;;14.54;100.00
9141;BME280;46330;50.822;7.126;2023-08-30T02:17:15;100200.13;;;14.51;100.00
9141;BME280;46330;50.822;7.126;2023-08-30T02:19:43;100200.94;;;14.53;100.00
9141;BME280;46330;50.822;7.126;2023-08-30T02:22:11;100200.75;;;14.58;100.00
9141;BME280;46330;50.822;7.126;2023-08-30T02:24:40;100194.75;;;14.54;100.00
9141;BME280;46330;50.822;7.126;2023-08-30T02:27:07;100193.09;;;14.51;100.00
9141;BME280;46330;50.822;7.126;2023-08-30T02:29:35;100197.31;;;14.56;100.00
9141;BME280;46330;50.822;7.126;2023-08-30T02:32:04;100192.97;;;14.54;100.00
9141;BME280;46330;50.822;7.126;2023-08-30T02:34:34;100197.47;;;14.52;100.00
9141;BME280;46330;50.822;7.126;2023-08-30T02:37:03;100197.38;;;14.54;100.00
9141;BME280;46330;50.822;7.126;2023-08-30T02:39:32;100195.56;;;14.56;100.00
9141;BME280;46330;50.822;7.126;2023-08-30T02:41:59;100197.31;;;14.56;100.00
9141;BME280;46330;50.822;7.126;2023-08-30T02:44:27;100190.34;;;14.54;100.00
9141;BME280;46330;50.822;7.126;2023-08-30T02:46:55;100190.16;;;14.59;100.00
9141;BME280;46330;50.822;7.126;2023-08-30T02:49:23;100194.56;;;14.59;100.00
9141;BME280;46330;50.822;7.126;2023-08-30T02:51:52;100193.56;;;14.61;100.00
9141;BME280;46330;50.822;7.126;2023-08-30T02:54:20;100192.53;;;14.65;100.00
9141;BME280;46330;50.822;7.126;2023-08-30T02:56:50;100192.31;;;14.70;100.00
9141;BME280;46330;50.822;7.126;2023-08-30T02:59:18;100177.38;;;14.70;100.00
9141;BME280;46330;50.822;7.126;2023-08-30T03:01:45;100178.59;;;14.63;100.00
9141;BME280;46330;50.822;7.126;2023-08-30T03:04:16;100176.88;;;14.62;100.00
9141;BME280;46330;50.822;7.126;2023-08-30T03:06:44;100177.88;;;14.60;100.00
9141;BME280;46330;50.822;7.126;2023-08-30T03:09:14;100172.00;;;14.53;100.00
9141;BME280;46330;50.822;7.126;2023-08-30T03:11:43;100170.22;;;14.53;100.00
9141;BME280;46330;50.822;7.126;2023-08-30T03:14:11;100168.44;;;14.54;100.00
9141;BME280;46330;50.822;7.126;2023-08-30T03:16:39;100164.88;;;14.55;100.00
9141;BME280;46330;50.822;7.126;2023-08-30T03:19:07;100157.06;;;14.53;100.00
9141;BME280;46330;50.822;7.126;2023-08-30T03:21:34;100158.28;;;14.45;100.00
9141;BME280;46330;50.822;7.126;2023-08-30T03:24:02;100173.81;;;14.51;100.00
9141;BME280;46330;50.822;7.126;2023-08-30T03:26:32;100175.53;;;14.52;100.00
9141;BME280;46330;50.822;7.126;2023-08-30T03:29:00;100175.63;;;14.50;100.00
9141;BME280;46330;50.822;7.126;2023-08-30T03:31:27;100175.88;;;14.44;100.00
9141;BME280;46330;50.822;7.126;2023-08-30T03:33:55;100175.94;;;14.43;100.00
9141;BME280;46330;50.822;7.126;2023-08-30T03:36:23;100175.06;;;14.42;100.00
9141;BME280;46330;50.822;7.126;2023-08-30T03:38:52;100171.84;;;14.36;100.00
9141;BME280;46330;50.822;7.126;2023-08-30T03:41:20;100169.53;;;14.28;100.00
9141;BME280;46330;50.822;7.126;2023-08-30T03:43:49;100167.81;;;14.27;100.00
9141;BME280;46330;50.822;7.126;2023-08-30T03:46:18;100171.56;;;14.22;100.00
9141;BME280;46330;50.822;7.126;2023-08-30T03:48:46;100166.34;;;14.20;100.00
9141;BME280;46330;50.822;7.126;2023-08-30T03:51:14;100168.50;;;14.11;100.00
9141;BME280;46330;50.822;7.126;2023-08-30T03:53:42;100160.03;;;14.04;100.00
9141;BME280;46330;50.822;7.126;2023-08-30T03:56:10;100160.13;;;14.01;100.00
9141;BME280;46330;50.822;7.126;2023-08-30T03:58:38;100154.03;;;14.00;100.00
9141;BME280;46330;50.822;7.126;2023-08-30T04:01:07;100159.47;;;13.96;100.00
9141;BME280;46330;50.822;7.126;2023-08-30T04:03:35;100159.72;;;13.90;100.00
9141;BME280;46330;50.822;7.126;2023-08-30T04:06:03;100161.72;;;13.83;100.00
9141;BME280;46330;50.822;7.126;2023-08-30T04:08:31;100165.38;;;13.79;100.00
9141;BME280;46330;50.822;7.126;2023-08-30T04:10:58;100163.94;;;13.72;100.00
9141;BME280;46330;50.822;7.126;2023-08-30T04:13:26;100162.41;;;13.67;100.00
9141;BME280;46330;50.822;7.126;2023-08-30T04:15:55;100148.72;;;13.59;100.00
9141;BME280;46330;50.822;7.126;2023-08-30T04:18:26;100148.94;;;13.53;100.00
9141;BME280;46330;50.822;7.126;2023-08-30T04:20:54;100146.56;;;13.46;100.00
9141;BME280;46330;50.822;7.126;2023-08-30T04:23:22;100146.69;;;13.43;100.00
9141;BME280;46330;50.822;7.126;2023-08-30T04:25:50;100137.41;;;13.35;100.00
9141;BME280;46330;50.822;7.126;2023-08-30T04:28:18;100139.91;;;13.38;100.00
9141;BME280;46330;50.822;7.126;2023-08-30T04:30:47;100136.56;;;13.33;100.00
9141;BME280;46330;50.822;7.126;2023-08-30T04:33:15;100135.88;;;13.29;100.00
9141;BME280;46330;50.822;7.126;2023-08-30T04:35:49;100134.25;;;13.25;100.00
9141;BME280;46330;50.822;7.126;2023-08-30T04:38:19;100136.06;;;13.23;100.00
9141;BME280;46330;50.822;7.126;2023-08-30T04:40:47;100141.41;;;13.22;100.00
9141;BME280;46330;50.822;7.126;2023-08-30T04:43:16;100132.72;;;13.20;100.00
9141;BME280;46330;50.822;7.126;2023-08-30T04:45:43;100148.41;;;13.21;100.00
9141;BME280;46330;50.822;7.126;2023-08-30T04:48:14;100144.25;;;13.16;100.00
9141;BME280;46330;50.822;7.126;2023-08-30T04:50:42;100134.84;;;13.10;100.00
9141;BME280;46330;50.822;7.126;2023-08-30T04:53:11;100137.56;;;13.07;100.00
9141;BME280;46330;50.822;7.126;2023-08-30T04:55:39;100132.97;;;13.14;100.00
9141;BME280;46330;50.822;7.126;2023-08-30T04:58:08;100129.47;;;13.13;100.00
9141;BME280;46330;50.822;7.126;2023-08-30T05:00:36;100133.91;;;13.11;100.00
9141;BME280;46330;50.822;7.126;2023-08-30T05:03:05;100131.28;;;13.11;100.00
9141;BME280;46330;50.822;7.126;2023-08-30T05:05:34;100127.06;;;13.07;100.00
9141;BME280;46330;50.822;7.126;2023-08-30T05:08:02;100134.88;;;13.09;100.00
9141;BME280;46330;50.822;7.126;2023-08-30T05:10:33;100137.41;;;13.12;100.00
9141;BME280;46330;50.822;7.126;2023-08-30T05:13:02;100123.56;;;13.07;100.00
9141;BME280;46330;50.822;7.126;2023-08-30T05:15:30;100124.28;;;13.12;100.00
9141;BME280;46330;50.822;7.126;2023-08-30T05:17:58;100123.47;;;13.10;100.00
9141;BME280;46330;50.822;7.126;2023-08-30T05:20:26;100125.13;;;13.12;100.00
9141;BME280;46330;50.822;7.126;2023-08-30T05:22:54;100123.00;;;13.22;100.00
9141;BME280;46330;50.822;7.126;2023-08-30T05:25:22;100119.75;;;13.15;100.00
9141;BME280;46330;50.822;7.126;2023-08-30T05:27:51;100121.25;;;13.22;100.00
9141;BME280;46330;50.822;7.126;2023-08-30T05:30:19;100114.91;;;13.28;100.00
9141;BME280;46330;50.822;7.126;2023-08-30T05:32:50;100121.56;;;13.36;100.00
9141;BME280;46330;50.822;7.126;2023-08-30T05:35:41;100111.78;;;13.40;100.00
9141;BME280;46330;50.822;7.126;2023-08-30T05:38:27;100110.53;;;13.50;100.00
9141;BME280;46330;50.822;7.126;2023-08-30T05:41:02;100111.75;;;13.63;100.00
9141;BME280;46330;50.822;7.126;2023-08-30T05:43:32;100100.50;;;13.60;100.00
9141;BME280;46330;50.822;7.126;2023-08-30T05:46:02;100102.19;;;13.61;100.00
9141;BME280;46330;50.822;7.126;2023-08-30T05:48:30;100103.78;;;13.65;100.00
9141;BME280;46330;50.822;7.126;2023-08-30T05:50:57;100100.13;;;13.69;100.00
9141;BME280;46330;50.822;7.126;2023-08-30T05:53:25;100097.53;;;13.67;100.00
9141;BME280;46330;50.822;7.126;2023-08-30T05:55:53;100092.84;;;13.75;100.00
9141;BME280;46330;50.822;7.126;2023-08-30T05:58:21;100100.28;;;13.86;100.00
9141;BME280;46330;50.822;7.126;2023-08-30T06:00:50;100096.09;;;13.82;100.00
9141;BME280;46330;50.822;7.126;2023-08-30T06:03:18;100099.91;;;13.95;100.00
9141;BME280;46330;50.822;7.126;2023-08-30T06:05:46;100100.25;;;14.08;100.00
9141;BME280;46330;50.822;7.126;2023-08-30T06:08:15;100096.56;;;14.12;100.00
9141;BME280;46330;50.822;7.126;2023-08-30T06:10:44;100094.41;;;14.21;100.00
9141;BME280;46330;50.822;7.126;2023-08-30T06:13:11;100095.25;;;14.22;100.00
9141;BME280;46330;50.822;7.126;2023-08-30T06:15:39;100086.47;;;14.23;100.00
9141;BME280;46330;50.822;7.126;2023-08-30T06:18:08;100086.06;;;14.32;100.00
9141;BME280;46330;50.822;7.126;2023-08-30T06:20:39;100087.47;;;14.40;100.00
9141;BME280;46330;50.822;7.126;2023-08-30T06:23:07;100093.97;;;14.32;100.00
9141;BME280;46330;50.822;7.126;2023-08-30T06:25:34;100096.28;;;14.39;100.00
9141;BME280;46330;50.822;7.126;2023-08-30T06:28:02;100096.19;;;14.61;100.00
9141;BME280;46330;50.822;7.126;2023-08-30T06:30:30;100085.75;;;14.60;100.00
9141;BME280;46330;50.822;7.126;2023-08-30T06:32:58;100088.53;;;14.75;100.00
9141;BME280;46330;50.822;7.126;2023-08-30T06:35:28;100090.81;;;14.83;100.00
9141;BME280;46330;50.822;7.126;2023-08-30T06:37:55;100085.41;;;15.04;100.00
9141;BME280;46330;50.822;7.126;2023-08-30T06:40:24;100093.81;;;15.13;100.00
9141;BME280;46330;50.822;7.126;2023-08-30T06:42:52;100081.75;;;15.44;100.00
9141;BME280;46330;50.822;7.126;2023-08-30T06:45:19;100084.78;;;15.73;98.43
9141;BME280;46330;50.822;7.126;2023-08-30T06:47:48;100067.97;;;15.75;97.24
9141;BME280;46330;50.822;7.126;2023-08-30T06:50:16;100083.25;;;16.20;95.17
9141;BME280;46330;50.822;7.126;2023-08-30T06:52:45;100073.53;;;16.38;93.55
9141;BME280;46330;50.822;7.126;2023-08-30T06:55:12;100073.44;;;16.56;92.05
9141;BME280;46330;50.822;7.126;2023-08-30T06:57:41;100069.94;;;16.73;90.97
9141;BME280;46330;50.822;7.126;2023-08-30T07:00:09;100064.34;;;17.10;89.52
9141;BME280;46330;50.822;7.126;2023-08-30T07:02:37;100059.69;;;17.00;89.05
9141;BME280;46330;50.822;7.126;2023-08-30T07:05:05;100057.63;;;17.36;86.34
9141;BME280;46330;50.822;7.126;2023-08-30T07:07:33;100059.47;;;17.65;85.36
9141;BME280;46330;50.822;7.126;2023-08-30T07:10:02;100061.81;;;18.15;82.43
9141;BME280;46330;50.822;7.126;2023-08-30T07:12:30;100066.66;;;18.37;80.71
9141;BME280;46330;50.822;7.126;2023-08-30T07:14:58;100063.38;;;18.48;79.44
9141;BME280;46330;50.822;7.126;2023-08-30T07:17:26;100061.13;;;18.84;77.36
9141;BME280;46330;50.822;7.126;2023-08-30T07:20:39;100058.06;;;19.32;76.13
9141;BME280;46330;50.822;7.126;2023-08-30T07:23:07;100064.59;;;19.41;73.48
9141;BME280;46330;50.822;7.126;2023-08-30T07:25:38;100054.41;;;20.14;71.78
9141;BME280;46330;50.822;7.126;2023-08-30T07:28:06;100051.38;;;19.54;71.95
9141;BME280;46330;50.822;7.126;2023-08-30T07:30:34;100051.19;;;19.57;73.15
9141;BME280;46330;50.822;7.126;2023-08-30T07:33:02;100045.84;;;19.83;71.54
9141;BME280;46330;50.822;7.126;2023-08-30T07:35:31;100041.19;;;20.00;69.67
9141;BME280;46330;50.822;7.126;2023-08-30T07:37:59;100043.09;;;20.50;67.61
9141;BME280;46330;50.822;7.126;2023-08-30T07:40:27;100051.41;;;21.07;65.11
9141;BME280;46330;50.822;7.126;2023-08-30T07:42:57;100049.84;;;21.17;63.75
9141;BME280;46330;50.822;7.126;2023-08-30T07:45:25;100044.00;;;20.86;63.04
9141;BME280;46330;50.822;7.126;2023-08-30T07:47:53;100049.91;;;21.52;64.01
9141;BME280;46330;50.822;7.126;2023-08-30T07:50:21;100038.94;;;21.56;62.85
9141;BME280;46330;50.822;7.126;2023-08-30T07:52:49;100045.22;;;21.79;60.46
9141;BME280;46330;50.822;7.126;2023-08-30T07:55:17;100044.97;;;20.85;62.05
9141;BME280;46330;50.822;7.126;2023-08-30T07:57:44;100044.41;;;21.66;59.36
9141;BME280;46330;50.822;7.126;2023-08-30T08:00:14;100052.94;;;20.98;60.03
9141;BME280;46330;50.822;7.126;2023-08-30T08:02:43;100051.47;;;20.31;64.08
9141;BME280;46330;50.822;7.126;2023-08-30T08:05:11;100043.19;;;20.35;63.70
9141;BME280;46330;50.822;7.126;2023-08-30T08:07:42;100055.19;;;19.36;68.78
9141;BME280;46330;50.822;7.126;2023-08-30T08:10:10;100067.88;;;19.71;67.21
9141;BME280;46330;50.822;7.126;2023-08-30T08:12:38;100055.94;;;20.43;65.13
9141;BME280;46330;50.822;7.126;2023-08-30T08:15:07;100063.44;;;20.24;66.01
9141;BME280;46330;50.822;7.126;2023-08-30T08:17:36;100051.53;;;20.92;61.74
9141;BME280;46330;50.822;7.126;2023-08-30T08:20:04;100038.00;;;21.21;61.45
9141;BME280;46330;50.822;7.126;2023-08-30T08:22:33;100055.22;;;21.75;58.68
9141;BME280;46330;50.822;7.126;2023-08-30T08:25:00;100049.00;;;21.87;57.21
9141;BME280;46330;50.822;7.126;2023-08-30T08:27:28;100041.53;;;21.92;57.12
9141;BME280;46330;50.822;7.126;2023-08-30T08:29:56;100046.00;;;22.38;55.48
9141;BME280;46330;50.822;7.126;2023-08-30T08:32:24;100038.38;;;23.44;53.76
9141;BME280;46330;50.822;7.126;2023-08-30T08:34:53;100037.97;;;22.16;54.36
9141;BME280;46330;50.822;7.126;2023-08-30T08:37:21;100039.41;;;22.77;53.07
9141;BME280;46330;50.822;7.126;2023-08-30T08:39:49;100030.31;;;22.90;51.87
9141;BME280;46330;50.822;7.126;2023-08-30T08:42:17;100034.41;;;23.06;50.27
9141;BME280;46330;50.822;7.126;2023-08-30T08:44:46;100027.38;;;23.04;48.33
9141;BME280;46330;50.822;7.126;2023-08-30T08:47:14;100022.03;;;23.16;47.48
9141;BME280;46330;50.822;7.126;2023-08-30T08:49:42;100023.47;;;23.20;47.22
9141;BME280;46330;50.822;7.126;2023-08-30T08:52:12;100013.50;;;23.44;45.92
9141;BME280;46330;50.822;7.126;2023-08-30T08:54:56;100020.19;;;23.70;45.78
9141;BME280;46330;50.822;7.126;2023-08-30T08:57:26;100021.03;;;23.17;46.46
9141;BME280;46330;50.822;7.126;2023-08-30T08:59:55;100025.16;;;23.95;46.13
9141;BME280;46330;50.822;7.126;2023-08-30T09:02:22;100032.25;;;24.38;44.35
9141;BME280;46330;50.822;7.126;2023-08-30T09:04:51;100025.53;;;24.43;41.80
9141;BME280;46330;50.822;7.126;2023-08-30T09:07:21;100023.63;;;23.61;43.44
9141;BME280;46330;50.822;7.126;2023-08-30T09:09:49;100014.81;;;24.23;43.67
9141;BME280;46330;50.822;7.126;2023-08-30T09:12:18;100020.03;;;25.05;42.13
9141;BME280;46330;50.822;7.126;2023-08-30T09:14:55;100015.59;;;23.93;43.22
9141;BME280;46330;50.822;7.126;2023-08-30T09:17:34;100009.91;;;24.07;43.11
9141;BME280;46330;50.822;7.126;2023-08-30T09:20:06;100011.16;;;24.44;42.42
9141;BME280;46330;50.822;7.126;2023-08-30T09:22:40;100011.09;;;23.41;44.11
9141;BME280;46330;50.822;7.126;2023-08-30T09:25:08;100011.84;;;22.98;45.73
9141;BME280;46330;50.822;7.126;2023-08-30T09:27:36;100012.44;;;22.24;46.32
9141;BME280;46330;50.822;7.126;2023-08-30T09:30:08;100011.44;;;21.79;48.16
9141;BME280;46330;50.822;7.126;2023-08-30T09:32:40;100017.25;;;21.26;49.74
9141;BME280;46330;50.822;7.126;2023-08-30T09:35:09;100009.75;;;21.31;49.90
9141;BME280;46330;50.822;7.126;2023-08-30T09:37:37;100016.44;;;21.13;50.22
9141;BME280;46330;50.822;7.126;2023-08-30T09:40:07;100004.50;;;21.42;50.14
9141;BME280;46330;50.822;7.126;2023-08-30T09:42:40;99996.78;;;21.50;50.53
9141;BME280;46330;50.822;7.126;2023-08-30T09:45:17;99998.34;;;20.92;51.45
9141;BME280;46330;50.822;7.126;2023-08-30T09:47:46;99999.63;;;21.12;52.18
9141;BME280;46330;50.822;7.126;2023-08-30T09:50:15;99991.19;;;21.18;52.35
9141;BME280;46330;50.822;7.126;2023-08-30T09:52:44;99990.25;;;21.07;52.35
9141;BME280;46330;50.822;7.126;2023-08-30T09:55:14;99977.97;;;20.80;55.44
9141;BME280;46330;50.822;7.126;2023-08-30T09:57:42;99973.97;;;20.99;54.81
9141;BME280;46330;50.822;7.126;2023-08-30T10:00:11;99970.38;;;21.00;54.18
9141;BME280;46330;50.822;7.126;2023-08-30T10:02:39;99972.97;;;21.25;54.03
9141;BME280;46330;50.822;7.126;2023-08-30T10:05:30;99970.97;;;21.16;53.14
9141;BME280;46330;50.822;7.126;2023-08-30T10:07:59;99966.16;;;20.84;53.73
9141;BME280;46330;50.822;7.126;2023-08-30T10:10:30;99964.59;;;21.06;54.08
9141;BME280;46330;50.822;7.126;2023-08-30T10:12:59;99958.44;;;21.05;53.93
9141;BME280;46330;50.822;7.126;2023-08-30T10:15:38;99954.53;;;20.62;55.74
9141;BME280;46330;50.822;7.126;2023-08-30T10:18:07;99959.09;;;20.60;55.38
9141;BME280;46330;50.822;7.126;2023-08-30T10:20:37;99964.34;;;20.36;56.27
9141;BME280;46330;50.822;7.126;2023-08-30T10:23:07;99966.13;;;19.98;58.00
9141;BME280;46330;50.822;7.126;2023-08-30T10:25:40;99972.06;;;19.89;59.40
9141;BME280;46330;50.822;7.126;2023-08-30T10:28:09;99973.88;;;19.88;62.44
9141;BME280;46330;50.822;7.126;2023-08-30T10:30:38;99975.78;;;19.86;66.05
9141;BME280;46330;50.822;7.126;2023-08-30T10:33:11;99983.78;;;19.59;73.03
9141;BME280;46330;50.822;7.126;2023-08-30T10:35:46;99977.78;;;19.43;73.11
9141;BME280;46330;50.822;7.126;2023-08-30T10:38:24;99974.53;;;19.52;73.89
9141;BME280;46330;50.822;7.126;2023-08-30T10:40:53;99967.56;;;19.64;75.09
9141;BME280;46330;50.822;7.126;2023-08-30T10:43:28;99978.31;;;19.75;73.27
9141;BME280;46330;50.822;7.126;2023-08-30T10:45:59;99972.94;;;19.50;74.77
9141;BME280;46330;50.822;7.126;2023-08-30T10:48:33;99972.97;;;19.62;78.80
9141;BME280;46330;50.822;7.126;2023-08-30T10:51:01;99963.19;;;19.23;78.83
9141;BME280;46330;50.822;7.126;2023-08-30T10:53:33;99958.81;;;19.22;82.36
9141;BME280;46330;50.822;7.126;2023-08-30T10:56:10;99967.03;;;19.32;82.46
9141;BME280;46330;50.822;7.126;2023-08-30T10:58:41;99959.81;;;19.61;84.39
9141;BME280;46330;50.822;7.126;2023-08-30T11:01:10;99958.28;;;19.44;75.47
9141;BME280;46330;50.822;7.126;2023-08-30T11:03:40;99947.28;;;19.63;75.07
9141;BME280;46330;50.822;7.126;2023-08-30T11:06:13;99947.41;;;19.61;75.35
9141;BME280;46330;50.822;7.126;2023-08-30T11:08:41;99939.03;;;19.80;78.20
9141;BME280;46330;50.822;7.126;2023-08-30T11:11:10;99939.03;;;19.93;73.03
9141;BME280;46330;50.822;7.126;2023-08-30T11:13:41;99930.94;;;19.69;72.80
9141;BME280;46330;50.822;7.126;2023-08-30T11:16:09;99927.03;;;19.74;74.13
9141;BME280;46330;50.822;7.126;2023-08-30T11:18:38;99918.75;;;19.79;74.39
9141;BME280;46330;50.822;7.126;2023-08-30T11:21:08;99914.81;;;20.10;75.85
9141;BME280;46330;50.822;7.126;2023-08-30T11:23:38;99913.13;;;19.96;74.56
9141;BME280;46330;50.822;7.126;2023-08-30T11:26:06;99909.72;;;19.69;75.15
9141;BME280;46330;50.822;7.126;2023-08-30T11:28:36;99920.66;;;19.64;73.81
9141;BME280;46330;50.822;7.126;2023-08-30T11:31:08;99925.13;;;19.64;75.18
9141;BME280;46330;50.822;7.126;2023-08-30T11:33:36;99930.69;;;19.47;81.46
9141;BME280;46330;50.822;7.126;2023-08-30T11:36:04;99948.91;;;19.12;83.11
9141;BME280;46330;50.822;7.126;2023-08-30T11:38:32;99970.28;;;18.82;86.38
9141;BME280;46330;50.822;7.126;2023-08-30T11:41:00;99980.19;;;17.94;92.32
9141;BME280;46330;50.822;7.126;2023-08-30T11:43:28;99978.25;;;17.67;97.53
9141;BME280;46330;50.822;7.126;2023-08-30T11:45:57;99981.16;;;17.63;99.86
9141;BME280;46330;50.822;7.126;2023-08-30T11:48:25;99980.06;;;17.67;100.00
9141;BME280;46330;50.822;7.126;2023-08-30T11:50:54;99979.25;;;17.81;100.00
9141;BME280;46330;50.822;7.126;2023-08-30T11:53:22;99970.41;;;17.50;100.00
9141;BME280;46330;50.822;7.126;2023-08-30T11:55:50;99974.31;;;17.13;100.00
9141;BME280;46330;50.822;7.126;2023-08-30T11:58:18;99976.59;;;17.35;100.00
9141;BME280;46330;50.822;7.126;2023-08-30T12:00:48;99983.16;;;17.28;100.00
9141;BME280;46330;50.822;7.126;2023-08-30T12:03:18;99985.47;;;17.34;100.00
9141;BME280;46330;50.822;7.126;2023-08-30T12:05:47;99987.41;;;17.46;100.00
9141;BME280;46330;50.822;7.126;2023-08-30T12:08:19;99995.59;;;17.57;100.00
9141;BME280;46330;50.822;7.126;2023-08-30T12:10:48;99983.06;;;17.45;100.00
9141;BME280;46330;50.822;7.126;2023-08-30T12:13:20;99977.31;;;17.23;100.00
9141;BME280;46330;50.822;7.126;2023-08-30T12:15:48;99968.47;;;17.38;100.00
9141;BME280;46330;50.822;7.126;2023-08-30T12:18:16;99962.59;;;17.49;100.00
9141;BME280;46330;50.822;7.126;2023-08-30T12:20:54;99961.19;;;17.28;100.00
9141;BME280;46330;50.822;7.126;2023-08-30T12:23:23;99961.41;;;17.09;100.00
9141;BME280;46330;50.822;7.126;2023-08-30T12:26:00;99964.75;;;17.27;100.00
9141;BME280;46330;50.822;7.126;2023-08-30T12:28:28;99966.66;;;17.25;100.00
9141;BME280;46330;50.822;7.126;2023-08-30T12:30:56;99960.13;;;17.46;100.00
9141;BME280;46330;50.822;7.126;2023-08-30T12:33:27;99958.88;;;17.67;100.00
9141;BME280;46330;50.822;7.126;2023-08-30T12:35:57;99966.41;;;17.89;100.00
9141;BME280;46330;50.822;7.126;2023-08-30T12:38:25;99962.88;;;17.74;100.00
9141;BME280;46330;50.822;7.126;2023-08-30T12:40:53;99957.28;;;17.64;100.00
9141;BME280;46330;50.822;7.126;2023-08-30T12:43:22;99963.81;;;17.43;100.00
9141;BME280;46330;50.822;7.126;2023-08-30T12:45:50;99961.72;;;17.18;100.00
9141;BME280;46330;50.822;7.126;2023-08-30T12:48:18;99968.97;;;17.15;100.00
9141;BME280;46330;50.822;7.126;2023-08-30T12:50:46;99962.31;;;17.24;100.00
9141;BME280;46330;50.822;7.126;2023-08-30T12:53:15;99970.31;;;17.22;100.00
9141;BME280;46330;50.822;7.126;2023-08-30T12:55:44;99969.47;;;17.22;100.00
9141;BME280;46330;50.822;7.126;2023-08-30T12:58:12;99965.97;;;17.21;100.00
9141;BME280;46330;50.822;7.126;2023-08-30T13:00:40;99972.19;;;17.20;100.00
9141;BME280;46330;50.822;7.126;2023-08-30T13:03:09;99970.16;;;16.94;100.00
9141;BME280;46330;50.822;7.126;2023-08-30T13:05:37;99969.50;;;17.06;100.00
9141;BME280;46330;50.822;7.126;2023-08-30T13:08:05;99972.44;;;17.15;100.00